This is the latest recevied weather packets stored in our database for station/object KE8YTO. If no packets are shown the sender has not sent any weather packets the latest 10 day(s).
| Time | Temp. | Humidity | Pressure | Rain* | Wind** | Luminosity | Snow |
|---|---|---|---|---|---|---|---|
| 1777675821 | 7.78° C | 47% | 992.2 hPa | 0 mm | - | - | - |
| 1777672220 | 7.78° C | 49% | 991.9 hPa | 0 mm | - | - | - |
| 1777671018 | 8.33° C | 50% | 991.9 hPa | 0 mm | - | - | - |
| 1777670417 | 8.33° C | 52% | 991.8 hPa | 0 mm | - | - | - |
| 1777667437 | 7.78° C | 52% | 991.9 hPa | 0 mm | - | - | - |
| 1777661430 | 8.33° C | 54% | 991.5 hPa | 0 mm | - | - | - |
| 1777656615 | 8.89° C | 52% | 991.5 hPa | 0 mm | - | - | - |
| 1777655425 | 8.89° C | 52% | 991.5 hPa | 0 mm | - | - | - |
| 1777654830 | 8.89° C | 51% | 991.6 hPa | 0 mm | - | - | - |
| 1777644623 | 5° C | 63% | 991.6 hPa | 0 mm | - | - | - |
| 1777642224 | 4.44° C | 65% | 991.5 hPa | 0 mm | - | - | - |
| 1777641623 | 4.44° C | 66% | 991.4 hPa | 0 mm | - | - | - |
| 1777636219 | 3.89° C | 65% | 990.7 hPa | 0 mm | - | - | - |
| 1777635624 | 3.89° C | 66% | 990.7 hPa | 0 mm | - | - | - |
| 1777635049 | 3.89° C | 66% | 990.6 hPa | 0 mm | - | - | - |
| 1777632631 | 3.33° C | 66% | 990.3 hPa | 0 mm | - | - | - |
| 1777629024 | 3.89° C | 64% | 990.4 hPa | 0 mm | - | - | - |
| 1777627220 | 4.44° C | 63% | 990.3 hPa | 0 mm | - | - | - |
| 1777624822 | 4.44° C | 64% | 990.3 hPa | 0 mm | - | - | - |
| 1777622444 | 5° C | 64% | 990.1 hPa | 0 mm | - | - | - |
| 1777620620 | 5° C | 64% | 990.4 hPa | 0 mm | - | - | - |
| 1777617648 | 5° C | 74% | 990.8 hPa | 0 mm | - | - | - |
| 1777615823 | 5° C | 76% | 990.9 hPa | 0 mm | - | - | - |
| 1777614632 | 5° C | 75% | 990.8 hPa | 0 mm | - | - | - |
| 1777610425 | 5.56° C | 68% | 990.8 hPa | 0 mm | - | - | - |
* Rain latest hour (hover to see other rain measurements)
** Current wind speed in m/s (hover to see current wind gust speed)